createdAt,value
2018-04-07T00:01:43.724Z,8.35
2018-04-07T00:04:11.218Z,8.36
2018-04-07T00:06:38.673Z,8.36
2018-04-07T00:09:06.168Z,8.31
2018-04-07T00:11:33.645Z,8.31
2018-04-07T00:14:01.120Z,8.29
2018-04-07T00:16:28.607Z,8.24
2018-04-07T00:18:56.112Z,8.21
2018-04-07T00:21:23.600Z,8.22
2018-04-07T00:23:51.073Z,8.21
2018-04-07T00:26:18.589Z,8.15
2018-04-07T00:28:46.320Z,8.22
2018-04-07T00:31:14.240Z,8.22
2018-04-07T00:33:41.701Z,8.22
2018-04-07T00:36:09.230Z,8.23
2018-04-07T00:38:36.722Z,8.26
2018-04-07T00:41:04.201Z,8.25
2018-04-07T00:43:31.696Z,8.25
2018-04-07T00:45:59.184Z,8.23
2018-04-07T00:48:26.701Z,8.18
2018-04-07T00:50:54.205Z,8.16
2018-04-07T00:53:21.697Z,8.10
2018-04-07T00:55:49.201Z,8.04
2018-04-07T00:58:16.695Z,8.03
2018-04-07T01:00:44.224Z,8.03
2018-04-07T01:03:11.724Z,8.04
2018-04-07T01:05:39.228Z,8.04
2018-04-07T01:08:06.728Z,8.03
2018-04-07T01:10:34.238Z,7.96
2018-04-07T01:13:01.724Z,7.93
2018-04-07T01:15:29.251Z,7.88
2018-04-07T01:17:56.726Z,7.86
2018-04-07T01:20:24.185Z,7.86
2018-04-07T01:22:51.680Z,7.88
2018-04-07T01:25:19.145Z,7.90
2018-04-07T01:27:46.635Z,7.93
2018-04-07T01:30:14.122Z,7.99
2018-04-07T01:32:41.790Z,7.91
2018-04-07T01:35:09.281Z,7.91
2018-04-07T01:37:36.798Z,7.82
2018-04-07T01:40:04.328Z,7.75
2018-04-07T01:42:31.807Z,7.74
2018-04-07T01:44:59.282Z,7.69
2018-04-07T01:47:26.769Z,7.69
2018-04-07T01:49:54.251Z,7.61
2018-04-07T01:52:21.729Z,7.57
2018-04-07T01:54:49.248Z,7.50
2018-04-07T01:57:16.759Z,7.51
2018-04-07T01:59:44.271Z,7.50
2018-04-07T02:02:11.760Z,7.45
2018-04-07T02:04:39.248Z,7.45
2018-04-07T02:07:06.752Z,7.36
2018-04-07T02:09:34.253Z,7.34
2018-04-07T02:12:01.728Z,7.37
2018-04-07T02:14:29.222Z,7.33
2018-04-07T02:16:56.765Z,7.36
2018-04-07T02:19:24.243Z,7.32
2018-04-07T02:21:51.750Z,7.29
2018-04-07T02:24:19.245Z,7.33
2018-04-07T02:26:46.752Z,7.30
2018-04-07T02:29:14.253Z,7.26
2018-04-07T02:31:41.824Z,7.28
2018-04-07T02:34:09.363Z,7.23
2018-04-07T02:36:36.854Z,7.21
2018-04-07T02:39:04.391Z,7.21
2018-04-07T02:41:31.864Z,7.17
2018-04-07T02:43:59.372Z,7.17
2018-04-07T02:46:26.838Z,7.14
2018-04-07T02:48:54.329Z,7.10
2018-04-07T02:51:21.836Z,7.08
2018-04-07T02:53:49.351Z,7.07
2018-04-07T02:56:16.867Z,7.10
2018-04-07T02:58:44.381Z,7.03
2018-04-07T03:01:11.944Z,7.08
2018-04-07T03:03:39.455Z,7.07
2018-04-07T03:06:06.957Z,7.03
2018-04-07T03:08:34.458Z,7.02
2018-04-07T03:11:01.953Z,7.02
2018-04-07T03:13:29.465Z,7.03
2018-04-07T03:15:56.971Z,7.04
2018-04-07T03:18:24.474Z,7.02
2018-04-07T03:20:52.361Z,7.03
2018-04-07T03:23:19.880Z,7.02
2018-04-07T03:25:47.476Z,6.94
2018-04-07T03:28:14.987Z,6.90
2018-04-07T03:30:42.494Z,6.84
2018-04-07T03:33:09.979Z,6.79
2018-04-07T03:35:37.472Z,6.81
2018-04-07T03:38:04.937Z,6.74
2018-04-07T03:40:32.475Z,6.68
2018-04-07T03:43:00.065Z,6.60
2018-04-07T03:45:27.560Z,6.56
2018-04-07T03:47:55.047Z,6.53
2018-04-07T03:50:22.588Z,6.45
2018-04-07T03:52:50.084Z,6.46
2018-04-07T03:55:17.699Z,6.40
2018-04-07T03:57:45.179Z,6.42
2018-04-07T04:00:12.763Z,6.37
2018-04-07T04:02:40.247Z,6.36
2018-04-07T04:05:07.896Z,6.33
2018-04-07T04:07:35.401Z,6.31
2018-04-07T04:10:03.087Z,6.29
2018-04-07T04:12:30.591Z,6.30
2018-04-07T04:14:58.218Z,6.29
2018-04-07T04:17:25.711Z,6.31
2018-04-07T04:19:54.262Z,6.36
2018-04-07T04:22:21.767Z,6.31
2018-04-07T04:24:49.311Z,6.29
2018-04-07T04:27:16.826Z,6.26
2018-04-07T04:29:44.323Z,6.22
2018-04-07T04:32:11.829Z,6.18
2018-04-07T04:34:39.336Z,6.19
2018-04-07T04:37:07.089Z,6.16
2018-04-07T04:39:34.568Z,6.17
2018-04-07T04:42:02.077Z,6.20
2018-04-07T04:44:29.764Z,6.20
2018-04-07T04:46:57.237Z,6.22
2018-04-07T04:49:24.880Z,6.21
2018-04-07T04:51:52.347Z,6.23
2018-04-07T04:54:19.871Z,6.22
2018-04-07T04:56:47.356Z,6.26
2018-04-07T04:59:14.878Z,6.24
2018-04-07T05:01:42.393Z,6.22
2018-04-07T05:04:09.907Z,6.22
2018-04-07T05:06:37.382Z,6.28
2018-04-07T05:09:04.876Z,6.31
2018-04-07T05:11:32.356Z,6.31
2018-04-07T05:13:59.870Z,6.28
2018-04-07T05:16:27.364Z,6.34
2018-04-07T05:18:54.824Z,6.33
2018-04-07T05:21:22.339Z,6.42
2018-04-07T05:23:49.866Z,6.40
2018-04-07T05:26:17.360Z,6.45
2018-04-07T05:28:44.855Z,6.48
2018-04-07T05:31:12.351Z,6.54
2018-04-07T05:33:39.823Z,6.56
2018-04-07T05:36:07.300Z,6.62
2018-04-07T05:38:34.831Z,6.66
2018-04-07T05:41:02.343Z,6.73
2018-04-07T05:43:29.849Z,6.77
2018-04-07T05:45:57.322Z,6.83
2018-04-07T05:48:24.817Z,6.89
2018-04-07T05:50:52.391Z,6.96
2018-04-07T05:53:19.937Z,7.02
2018-04-07T05:55:47.415Z,7.10
2018-04-07T05:58:14.910Z,7.13
2018-04-07T06:00:42.397Z,7.18
2018-04-07T06:03:09.981Z,7.24
2018-04-07T06:05:37.493Z,7.31
2018-04-07T06:08:05.017Z,7.37
2018-04-07T06:10:32.521Z,7.46
2018-04-07T06:13:00.018Z,7.56
2018-04-07T06:15:27.512Z,7.66
2018-04-07T06:17:55.065Z,7.76
2018-04-07T06:20:22.582Z,7.85
2018-04-07T06:22:50.065Z,7.99
2018-04-07T06:25:17.582Z,8.14
2018-04-07T06:27:45.159Z,8.28
2018-04-07T06:30:12.762Z,8.37
2018-04-07T06:32:40.333Z,8.47
2018-04-07T06:35:07.861Z,8.60
2018-04-07T06:37:35.333Z,8.69
2018-04-07T06:40:02.819Z,8.81
2018-04-07T06:42:30.408Z,8.90
2018-04-07T06:44:58.041Z,9.07
2018-04-07T06:47:25.515Z,9.21
2018-04-07T06:49:52.990Z,9.33
2018-04-07T06:52:20.473Z,9.49
2018-04-07T06:54:47.959Z,9.60
2018-04-07T06:57:15.437Z,9.73
2018-04-07T06:59:42.960Z,9.90
2018-04-07T07:02:10.439Z,10.02
2018-04-07T07:04:37.938Z,10.21
2018-04-07T07:07:05.404Z,10.37
2018-04-07T07:09:32.877Z,10.49
2018-04-07T07:12:00.371Z,10.62
2018-04-07T07:14:27.887Z,10.76
2018-04-07T07:16:55.502Z,10.87
2018-04-07T07:19:23.182Z,11.01
2018-04-07T07:21:50.662Z,11.15
2018-04-07T07:24:18.172Z,11.30
2018-04-07T07:26:45.658Z,11.29
2018-04-07T07:29:13.155Z,11.36
2018-04-07T07:31:40.646Z,11.54
2018-04-07T07:34:08.199Z,11.72
2018-04-07T07:36:35.778Z,11.83
2018-04-07T07:39:03.376Z,11.90
2018-04-07T07:41:30.850Z,12.01
2018-04-07T07:43:58.360Z,12.12
2018-04-07T07:46:25.850Z,12.18
2018-04-07T07:48:53.375Z,12.32
2018-04-07T07:51:20.891Z,12.42
2018-04-07T07:53:48.667Z,12.49
2018-04-07T07:56:16.159Z,12.63
2018-04-07T07:58:43.818Z,12.83
2018-04-07T08:01:11.303Z,12.85
2018-04-07T08:03:38.818Z,13.00
2018-04-07T08:06:06.296Z,13.14
2018-04-07T08:08:33.800Z,13.26
2018-04-07T08:11:01.336Z,13.31
2018-04-07T08:13:28.840Z,13.36
2018-04-07T08:15:56.364Z,13.46
2018-04-07T08:18:24.088Z,13.48
2018-04-07T08:20:51.632Z,13.73
2018-04-07T08:23:19.248Z,13.86
2018-04-07T08:25:46.756Z,14.06
2018-04-07T08:28:14.371Z,14.25
2018-04-07T08:30:41.932Z,14.46
2018-04-07T08:33:09.440Z,14.61
2018-04-07T08:35:36.923Z,14.81
2018-04-07T08:38:05.122Z,14.95
2018-04-07T08:40:33.658Z,15.05
2018-04-07T08:43:03.715Z,15.12
2018-04-07T08:45:32.352Z,15.07
2018-04-07T08:48:07.904Z,15.28
2018-04-07T08:51:00.842Z,15.31
2018-04-07T08:59:04.468Z,15.58
2018-04-07T09:01:32.995Z,15.78
2018-04-07T09:04:02.704Z,15.97
2018-04-07T09:06:31.691Z,16.14
2018-04-07T09:09:08.467Z,16.27
2018-04-07T09:11:38.831Z,16.30
2018-04-07T09:14:08.078Z,16.21
2018-04-07T09:16:45.144Z,16.31
2018-04-07T09:19:43.761Z,16.35
2018-04-07T09:22:15.575Z,16.47
2018-04-07T09:27:27.205Z,16.81
2018-04-07T09:29:58.340Z,16.80
2018-04-07T09:32:26.921Z,17.03
2018-04-07T09:34:59.087Z,17.19
2018-04-07T09:37:27.233Z,17.32
2018-04-07T09:39:54.874Z,17.46
2018-04-07T09:42:26.463Z,17.60
2018-04-07T09:44:55.791Z,17.79
2018-04-07T09:47:26.386Z,17.94
2018-04-07T09:49:54.640Z,17.99
2018-04-07T09:52:22.470Z,18.17
2018-04-07T09:54:50.148Z,18.31
2018-04-07T09:57:18.112Z,18.35
2018-04-07T09:59:45.831Z,18.56
2018-04-07T10:02:18.930Z,18.67
2018-04-07T10:04:46.416Z,18.73
2018-04-07T10:07:13.934Z,18.87
2018-04-07T10:09:41.428Z,19.05
2018-04-07T10:12:08.944Z,19.07
2018-04-07T10:14:36.524Z,19.17
2018-04-07T10:17:04.118Z,19.19
2018-04-07T10:19:31.600Z,19.24
2018-04-07T10:21:59.157Z,19.39
2018-04-07T10:24:26.814Z,19.55
2018-04-07T10:26:54.396Z,19.55
2018-04-07T10:29:21.938Z,19.74
2018-04-07T10:31:49.412Z,19.82
2018-04-07T10:34:16.907Z,19.74
2018-04-07T10:36:44.405Z,19.88
2018-04-07T10:39:11.895Z,19.94
2018-04-07T10:41:39.410Z,19.90
2018-04-07T10:44:06.942Z,20.02
2018-04-07T10:46:34.500Z,20.14
2018-04-07T10:49:02.028Z,20.22
2018-04-07T10:51:29.504Z,20.24
2018-04-07T10:53:57.010Z,20.40
2018-04-07T10:56:24.558Z,20.51
2018-04-07T10:58:52.023Z,20.57
2018-04-07T11:01:19.510Z,20.64
2018-04-07T11:03:47.010Z,20.76
2018-04-07T11:06:14.595Z,20.84
2018-04-07T11:08:42.075Z,20.94
2018-04-07T11:11:09.619Z,21.00
2018-04-07T11:13:37.186Z,20.85
2018-04-07T11:16:04.738Z,20.65
2018-04-07T11:18:32.216Z,20.56
2018-04-07T11:20:59.725Z,20.87
2018-04-07T11:23:27.258Z,21.00
2018-04-07T11:25:54.799Z,21.21
2018-04-07T11:28:22.327Z,21.23
2018-04-07T11:30:51.904Z,21.49
2018-04-07T11:33:19.501Z,21.75
2018-04-07T11:35:47.105Z,21.99
2018-04-07T11:38:14.591Z,22.19
2018-04-07T11:40:42.085Z,22.37
2018-04-07T11:43:09.623Z,22.72
2018-04-07T11:45:37.106Z,23.09
2018-04-07T11:48:04.604Z,23.41
2018-04-07T11:50:32.147Z,23.81
2018-04-07T11:52:59.705Z,24.30
2018-04-07T11:55:27.176Z,24.85
2018-04-07T11:57:54.648Z,25.36
2018-04-07T12:00:22.237Z,25.72
2018-04-07T12:02:49.750Z,26.30
2018-04-07T12:05:17.263Z,27.19
2018-04-07T12:07:44.732Z,27.91
2018-04-07T12:10:12.205Z,28.64
2018-04-07T12:12:39.782Z,29.44
2018-04-07T12:15:07.257Z,30.39
2018-04-07T12:17:34.793Z,31.53
2018-04-07T12:20:02.392Z,32.12
2018-04-07T12:22:29.880Z,33.10
2018-04-07T12:24:57.488Z,34.52
2018-04-07T12:27:24.976Z,35.66
2018-04-07T12:29:52.482Z,37.05
2018-04-07T12:32:20.103Z,37.33
2018-04-07T12:34:47.916Z,38.48
2018-04-07T12:37:15.403Z,38.98
2018-04-07T12:39:43.084Z,39.25
2018-04-07T12:42:10.581Z,39.64
2018-04-07T12:44:38.082Z,40.33
2018-04-07T12:47:05.562Z,40.79
2018-04-07T12:49:33.222Z,39.89
2018-04-07T12:52:00.672Z,40.72
2018-04-07T12:54:28.146Z,41.00
2018-04-07T12:56:55.611Z,39.97
2018-04-07T12:59:23.086Z,39.15
2018-04-07T13:01:50.674Z,39.75
2018-04-07T13:04:18.202Z,39.99
2018-04-07T13:06:45.694Z,39.73
2018-04-07T13:09:13.181Z,40.82
2018-04-07T13:11:40.679Z,41.80
2018-04-07T13:14:08.191Z,41.90
2018-04-07T13:16:35.729Z,42.39
2018-04-07T13:19:03.227Z,43.36
2018-04-07T13:21:30.725Z,43.91
2018-04-07T13:23:58.202Z,43.36
2018-04-07T13:26:25.689Z,43.42
2018-04-07T13:28:53.194Z,43.61
2018-04-07T13:31:20.763Z,44.26
2018-04-07T13:33:48.262Z,44.30
2018-04-07T13:36:15.776Z,43.88
2018-04-07T13:38:45.357Z,44.08
2018-04-07T13:41:12.827Z,43.41
2018-04-07T13:43:40.295Z,43.56
2018-04-07T13:46:07.828Z,43.17
2018-04-07T13:48:35.526Z,43.94
2018-04-07T13:51:03.049Z,42.89
2018-04-07T13:53:30.533Z,41.51
2018-04-07T13:55:58.088Z,42.24
2018-04-07T13:58:25.693Z,42.59
2018-04-07T14:00:53.265Z,43.47
2018-04-07T14:03:20.786Z,42.99
2018-04-07T14:05:49.303Z,43.13
2018-04-07T14:08:16.790Z,43.48
2018-04-07T14:10:44.349Z,42.26
2018-04-07T14:13:11.913Z,42.49
2018-04-07T14:15:39.596Z,42.68
2018-04-07T14:18:07.264Z,43.79
2018-04-07T14:20:34.729Z,43.79
2018-04-07T14:23:02.275Z,44.32
2018-04-07T14:25:29.775Z,44.69
2018-04-07T14:27:57.272Z,45.58
2018-04-07T14:30:24.754Z,45.79
2018-04-07T14:32:52.237Z,44.17
2018-04-07T14:35:19.835Z,41.69
2018-04-07T14:37:47.338Z,42.70
2018-04-07T14:40:14.818Z,43.05
2018-04-07T14:42:42.407Z,42.37
2018-04-07T14:45:09.908Z,42.35
2018-04-07T14:47:37.507Z,42.96
2018-04-07T14:50:05.062Z,42.64
2018-04-07T14:52:32.535Z,42.83
2018-04-07T14:55:00.078Z,41.08
2018-04-07T14:57:27.552Z,41.17
2018-04-07T14:59:55.087Z,41.64
2018-04-07T15:02:22.578Z,41.28
2018-04-07T15:04:50.052Z,42.72
2018-04-07T15:07:17.519Z,43.19
2018-04-07T15:09:45.078Z,43.68
2018-04-07T15:12:12.704Z,42.74
2018-04-07T15:14:40.198Z,43.27
2018-04-07T15:17:07.713Z,43.63
2018-04-07T15:19:35.181Z,44.23
2018-04-07T15:22:02.649Z,44.80
2018-04-07T15:24:30.124Z,44.65
2018-04-07T15:26:57.583Z,44.46
2018-04-07T15:29:25.126Z,44.64
2018-04-07T15:31:52.623Z,44.59
2018-04-07T15:34:20.116Z,44.27
2018-04-07T15:36:47.639Z,44.66
2018-04-07T15:39:15.093Z,44.45
2018-04-07T15:41:42.552Z,44.26
2018-04-07T15:44:10.043Z,44.19
2018-04-07T15:46:37.534Z,44.68
2018-04-07T15:49:04.989Z,44.37
2018-04-07T15:51:32.459Z,44.25
2018-04-07T15:53:59.929Z,43.99
2018-04-07T15:56:27.575Z,44.37
2018-04-07T15:58:55.100Z,44.45
2018-04-07T16:01:22.610Z,43.73
2018-04-07T16:03:50.206Z,43.59
2018-04-07T16:06:17.728Z,43.39
2018-04-07T16:08:45.251Z,43.67
2018-04-07T16:11:12.726Z,43.44
2018-04-07T16:13:40.314Z,43.29
2018-04-07T16:16:07.858Z,43.05
2018-04-07T16:18:35.381Z,42.64
2018-04-07T16:21:02.864Z,42.71
2018-04-07T16:23:30.328Z,42.47
2018-04-07T16:25:57.800Z,42.27
2018-04-07T16:28:25.398Z,41.80
2018-04-07T16:30:53.115Z,41.25
2018-04-07T16:33:20.686Z,40.90
2018-04-07T16:35:48.150Z,39.46
2018-04-07T16:38:15.661Z,39.79
2018-04-07T16:40:43.505Z,39.61
2018-04-07T16:43:10.974Z,39.44
2018-04-07T16:45:38.495Z,38.82
2018-04-07T16:48:05.969Z,38.77
2018-04-07T16:50:33.453Z,38.47
2018-04-07T16:53:00.956Z,37.39
2018-04-07T16:55:28.435Z,35.90
2018-04-07T16:57:55.947Z,34.09
2018-04-07T17:00:23.439Z,32.17
2018-04-07T17:02:50.956Z,30.85
2018-04-07T17:05:18.443Z,29.81
2018-04-07T17:07:45.974Z,28.78
2018-04-07T17:10:13.579Z,27.89
2018-04-07T17:12:41.082Z,27.15
2018-04-07T17:15:08.573Z,26.65
2018-04-07T17:17:36.172Z,26.14
2018-04-07T17:20:03.679Z,25.81
2018-04-07T17:22:31.204Z,25.31
2018-04-07T17:24:58.699Z,25.06
2018-04-07T17:27:26.457Z,24.69
2018-04-07T17:29:53.994Z,24.43
2018-04-07T17:32:21.602Z,24.08
2018-04-07T17:34:49.114Z,23.87
2018-04-07T17:37:16.599Z,23.65
2018-04-07T17:39:44.129Z,23.46
2018-04-07T17:42:11.792Z,23.22
2018-04-07T17:44:39.281Z,22.99
2018-04-07T17:47:06.764Z,22.84
2018-04-07T17:49:43.607Z,22.58
2018-04-07T17:52:01.815Z,22.38
2018-04-07T17:54:29.419Z,22.23
2018-04-07T17:56:56.958Z,22.02
2018-04-07T17:59:24.473Z,21.78
2018-04-07T18:01:51.957Z,21.62
2018-04-07T18:04:19.439Z,21.52
2018-04-07T18:06:46.950Z,21.41
2018-04-07T18:09:14.574Z,21.18
2018-04-07T18:11:42.062Z,21.01
2018-04-07T18:14:09.601Z,20.88
2018-04-07T18:16:37.075Z,20.80
2018-04-07T18:19:04.645Z,20.72
2018-04-07T18:21:32.135Z,20.66
2018-04-07T18:23:59.732Z,20.56
2018-04-07T18:26:27.213Z,20.54
2018-04-07T18:28:54.729Z,20.48
2018-04-07T18:31:22.209Z,20.22
2018-04-07T18:33:49.735Z,20.07
2018-04-07T18:36:17.210Z,19.95
2018-04-07T18:38:44.697Z,19.86
2018-04-07T18:41:12.288Z,19.70
2018-04-07T18:43:39.757Z,19.67
2018-04-07T18:46:07.255Z,19.65
2018-04-07T18:48:34.839Z,19.57
2018-04-07T18:51:02.332Z,19.46
2018-04-07T18:53:29.943Z,19.39
2018-04-07T18:55:57.455Z,19.38
2018-04-07T18:58:25.237Z,19.36
2018-04-07T19:00:52.718Z,19.23
2018-04-07T19:03:20.241Z,18.99
2018-04-07T19:05:47.717Z,18.72
2018-04-07T19:08:15.476Z,18.52
2018-04-07T19:10:42.977Z,18.33
2018-04-07T19:13:10.558Z,18.19
2018-04-07T19:15:38.072Z,18.23
2018-04-07T19:18:05.608Z,18.24
2018-04-07T19:20:33.089Z,18.08
2018-04-07T19:23:00.648Z,17.91
2018-04-07T19:25:28.255Z,17.73
2018-04-07T19:27:55.878Z,17.61
2018-04-07T19:30:23.365Z,17.47
2018-04-07T19:32:51.305Z,17.37
2018-04-07T19:35:18.857Z,17.30
2018-04-07T19:37:46.551Z,17.15
2018-04-07T19:40:14.169Z,17.03
2018-04-07T19:42:41.660Z,16.95
2018-04-07T19:45:09.131Z,16.81
2018-04-07T19:47:36.673Z,16.80
2018-04-07T19:50:04.159Z,16.69
2018-04-07T19:52:31.632Z,16.61
2018-04-07T19:54:59.341Z,16.52
2018-04-07T19:57:26.819Z,16.42
2018-04-07T19:59:54.470Z,16.34
2018-04-07T20:02:21.972Z,16.29
2018-04-07T20:04:49.462Z,16.21
2018-04-07T20:07:17.882Z,16.34
2018-04-07T20:09:45.678Z,16.30
2018-04-07T20:12:13.173Z,16.23
2018-04-07T20:14:40.655Z,16.13
2018-04-07T20:17:08.149Z,16.05
2018-04-07T20:19:35.673Z,15.96
2018-04-07T20:22:03.195Z,15.91
2018-04-07T20:24:30.933Z,15.79
2018-04-07T20:26:58.416Z,15.67
2018-04-07T20:29:25.902Z,15.62
2018-04-07T20:31:53.441Z,15.54
2018-04-07T20:34:20.911Z,15.44
2018-04-07T20:36:48.402Z,15.38
2018-04-07T20:39:15.953Z,15.33
2018-04-07T20:41:43.442Z,15.27
2018-04-07T20:44:10.995Z,15.25
2018-04-07T20:46:38.491Z,15.18
2018-04-07T20:49:06.029Z,15.52
2018-04-07T20:51:33.513Z,15.79
2018-04-07T20:54:01.031Z,16.16
2018-04-07T20:56:28.550Z,16.13
2018-04-07T20:58:56.037Z,16.26
2018-04-07T21:01:23.523Z,16.39
2018-04-07T21:03:51.006Z,16.33
2018-04-07T21:06:18.487Z,16.10
2018-04-07T21:08:46.065Z,15.79
2018-04-07T21:11:13.541Z,15.61
2018-04-07T21:13:41.222Z,15.44
2018-04-07T21:16:08.733Z,15.24
2018-04-07T21:18:36.323Z,15.19
2018-04-07T21:21:04.372Z,15.01
2018-04-07T21:23:31.904Z,14.90
2018-04-07T21:25:59.370Z,14.80
2018-04-07T21:28:26.872Z,14.80
2018-04-07T21:30:54.459Z,14.87
2018-04-07T21:33:21.978Z,15.06
2018-04-07T21:35:49.483Z,15.25
2018-04-07T21:38:17.043Z,15.44
2018-04-07T21:40:44.604Z,15.65
2018-04-07T21:43:12.105Z,15.67
2018-04-07T21:45:39.691Z,15.68
2018-04-07T21:48:07.157Z,15.81
2018-04-07T21:50:34.814Z,15.81
2018-04-07T21:53:02.445Z,15.68
2018-04-07T21:55:29.915Z,15.83
2018-04-07T21:57:57.502Z,15.64
2018-04-07T22:00:25.024Z,15.47
2018-04-07T22:02:52.682Z,15.24
2018-04-07T22:05:20.189Z,15.16
2018-04-07T22:07:47.689Z,15.08
2018-04-07T22:10:15.368Z,14.99
2018-04-07T22:12:42.864Z,14.92
2018-04-07T22:15:10.367Z,14.83
2018-04-07T22:17:37.881Z,14.73
2018-04-07T22:20:05.362Z,14.65
2018-04-07T22:22:32.890Z,14.52
2018-04-07T22:25:00.496Z,14.33
2018-04-07T22:27:28.071Z,14.35
2018-04-07T22:29:56.554Z,14.22
2018-04-07T22:32:24.043Z,14.11
2018-04-07T22:34:51.577Z,13.96
2018-04-07T22:37:19.208Z,13.76
2018-04-07T22:39:46.748Z,13.92
2018-04-07T22:42:14.230Z,13.81
2018-04-07T22:44:41.788Z,13.93
2018-04-07T22:47:09.341Z,14.06
2018-04-07T22:49:36.828Z,14.25
2018-04-07T22:52:04.343Z,14.43
2018-04-07T22:54:34.301Z,14.53
2018-04-07T22:57:05.384Z,14.50
2018-04-07T22:59:34.820Z,14.55
2018-04-07T23:02:02.819Z,14.49
2018-04-07T23:04:30.708Z,14.61
2018-04-07T23:06:58.200Z,14.38
2018-04-07T23:09:28.597Z,14.03
2018-04-07T23:11:56.099Z,13.83
2018-04-07T23:14:24.447Z,13.64
2018-04-07T23:16:51.936Z,13.45
2018-04-07T23:19:19.455Z,13.21
2018-04-07T23:21:47.101Z,13.11
2018-04-07T23:24:14.590Z,12.93
2018-04-07T23:26:42.472Z,12.81
2018-04-07T23:29:10.036Z,12.71
2018-04-07T23:31:37.534Z,12.65
2018-04-07T23:34:08.440Z,12.55
2018-04-07T23:36:40.009Z,12.51
2018-04-07T23:39:09.625Z,12.44
2018-04-07T23:41:39.681Z,12.40
2018-04-07T23:44:09.281Z,12.39
2018-04-07T23:46:39.486Z,12.34
2018-04-07T23:49:09.341Z,12.29
2018-04-07T23:51:38.983Z,12.24
2018-04-07T23:54:08.786Z,12.21
2018-04-07T23:56:39.226Z,12.15
2018-04-07T23:59:10.596Z,12.10
